• Join FlightAware (Why Join?)
  • Login
  • US Flag 
03:06AM EDT


 

Airport Tracker/Info


-or-


 

Live Flight TrackerFlight Track Log ✈ RPA4886 ✈ 02-May-2013 ✈ KALB - KIAD

Flight Track Log - Related Links

Times and Time Zones

All times are in EDT time to prevent confusion due to time zone crossing. See the RPA4886 flight status page for this flight to view local times or setup timezone preferences in your user account.

Time Position Orientation Groundspeed Altitude Reporting Facility
EDT Latitude Longitude Course Direction KTS MPH feet Rate Location/Type
07:29PM 42.8169 -73.8383 335° Northwest 208 239 3,200  Level Boston Center
07:30PM 42.8144 -73.8750 265° West 208 239 4,200 2,040 Climbing Boston Center
07:31PM 42.8028 -73.9597 259° West 223 257 6,100 1,920 Climbing Boston Center
07:32PM 42.7892 -74.0500 258° West 242 278 8,100 1,980 Climbing Boston Center
07:33PM 42.6634 -74.3933 220° Southwest  Level FlightAware Approximate
07:33PM 42.7733 -74.1428 257° West 248 285 10,100  Level Boston Center
07:34PM 42.7531 -74.2272 252° West 259 298 11,900 1,440 Climbing Boston Center
07:35PM 42.7014 -74.3303 236° Southwest 287 330 13,000 1,080 Climbing Boston Center
07:36PM 42.6542 -74.4192 234° Southwest 317 365 14,100 1,320 Climbing Boston Center
07:37PM 42.5939 -74.5272 233° Southwest 327 376 15,700 1,440 Climbing Boston Center
07:38PM 42.5483 -74.6131 234° Southwest 327 376 17,000 1,200 Climbing Boston Center
07:39PM 42.4922 -74.7181 234° Southwest 327 376 18,200 960 Climbing Boston Center
07:41PM 42.3906 -74.9036 233° Southwest 312 359 20,000 540 Climbing New York Center
07:42PM 42.3394 -74.9983 234° Southwest 325 374 20,000  Level New York Center
07:43PM 42.2792 -75.1094 234° Southwest 351 404 20,000  Level New York Center
07:44PM 42.2169 -75.2172 232° Southwest 368 423 20,000  Level New York Center
07:45PM 42.1586 -75.3281 235° Southwest 373 429 20,000  Level New York Center
07:46PM 42.0958 -75.4411 233° Southwest 378 435 20,000  Level New York Center
07:47PM 42.0353 -75.5511 233° Southwest 378 435 20,000  Level New York Center
07:48PM 41.9747 -75.6583 233° Southwest 378 435 20,000  Level New York Center
07:49PM 41.9139 -75.7683 233° Southwest 378 435 20,000  Level New York Center
07:50PM 41.8508 -75.8803 233° Southwest 378 435 20,000  Level New York Center
07:51PM 41.7900 -75.9869 233° Southwest 378 435 20,000 -300 Level New York Center
07:52PM 41.7267 -76.1017 234° Southwest 378 435 19,500 -1,080 Descending New York Center
07:53PM 41.6567 -76.2236 232° Southwest 378 435 17,900 -1,680 Descending New York Center
07:54PM 41.6003 -76.3161 231° Southwest 378 435 16,100 -960 Descending New York Center
07:55PM 41.5364 -76.4328 234° Southwest 373 429 16,000 -60 Descending New York Center
07:56PM 41.4753 -76.5358 232° Southwest 367 422 16,000  Level New York Center
07:57PM 41.4139 -76.6411 232° Southwest 372 428 16,000 -60 Level New York Center
07:58PM 41.3522 -76.7492 233° Southwest 372 428 15,900  Descending New York Center
07:59PM 41.2603 -76.7961 201° Southwest 352 405 16,000 60 Climbing New York Center
08:00PM 41.1614 -76.8150 188° South 343 395 16,100  Climbing New York Center
08:01PM 41.0647 -76.8311 187° South 354 407 16,100  Level New York Center
08:02PM 40.9678 -76.8500 188° South 354 407 16,100  Level New York Center
08:03PM 40.8794 -76.8667 188° South 359 413 16,100 -60 Level New York Center
08:04PM 40.7697 -76.8897 189° South 359 413 16,000 -60 Descending New York Center
08:05PM 40.6808 -76.9175 193° South 359 413 16,000  Level New York Center
08:06PM 40.5750 -76.9517 194° South 366 421 16,000  Level New York Center
08:07PM 40.4858 -76.9792 193° South 366 421 16,000  Level New York Center
08:08PM 40.3800 -77.0106 193° South 361 415 16,000  Level New York Center
08:09PM 40.2908 -77.0408 195° South 361 415 16,100 -840 Climbing New York Center
08:11PM 40.0833 -77.1000 192° South 349 402 13,600 -1,260 Descending Potomac TRACON
08:12PM 40.0000 -77.1333 197° South 341 392 12,400 -1,200 Descending Potomac TRACON
08:13PM 39.9000 -77.1500 187° South 339 390 11,200 -1,200 Descending Potomac TRACON
08:14PM 39.8167 -77.1833 197° South 323 372 10,100 -660 Descending Potomac TRACON
08:15PM 39.7333 -77.2167 197° South 319 367 10,000 -60 Descending Potomac TRACON
08:16PM 39.6500 -77.2833 212° Southwest 316 364 10,000 -120 Level Potomac TRACON
08:17PM 39.5667 -77.3167 197° South 302 348 9,800 -780 Descending Potomac TRACON
08:18PM 39.5000 -77.3500 201° Southwest 281 323 8,500 -1,320 Descending Potomac TRACON
08:19PM 39.4333 -77.3667 191° South 269 310 7,200 -1,320 Descending Potomac TRACON
08:20PM 39.3500 -77.4000 197° South 269 310 5,900 -1,140 Descending Potomac TRACON
08:21PM 39.2833 -77.4333 201° Southwest 257 296 5,000 -480 Descending Potomac TRACON
08:22PM 39.2167 -77.4500 191° South 232 267 5,000 -540 Level Potomac TRACON
08:23PM 39.1500 -77.4500 180° South 214 246 4,000 -1,080 Descending Potomac TRACON
08:24PM 39.1000 -77.4500 180° South 188 216 2,900 -1,020 Descending Potomac TRACON
08:25PM 39.0500 -77.4500 180° South 168 193 2,000 -900 Descending Potomac TRACON
08:26PM 39.0167 -77.4667 201° Southwest 128 147 1,200 -840 Descending Potomac TRACON